createdAt,value
2022-08-23T00:02:23.757Z,21.20
2022-08-23T00:05:08.660Z,21.22
2022-08-23T00:07:39.947Z,21.25
2022-08-23T00:10:11.723Z,21.25
2022-08-23T00:12:42.900Z,21.27
2022-08-23T00:15:16.811Z,21.24
2022-08-23T00:17:48.857Z,21.13
2022-08-23T00:20:25.938Z,21.27
2022-08-23T00:22:54.946Z,21.30
2022-08-23T00:25:25.817Z,21.33
2022-08-23T00:27:55.861Z,21.32
2022-08-23T00:30:26.082Z,21.27
2022-08-23T00:32:57.938Z,21.28
2022-08-23T00:35:28.406Z,21.25
2022-08-23T00:38:33.085Z,21.23
2022-08-23T00:40:51.843Z,21.23
2022-08-23T00:43:46.459Z,21.20
2022-08-23T00:46:42.228Z,21.19
2022-08-23T00:49:34.195Z,21.17
2022-08-23T00:52:09.581Z,21.16
2022-08-23T00:54:44.580Z,21.13
2022-08-23T00:57:19.675Z,21.14
2022-08-23T00:59:50.759Z,21.13
2022-08-23T01:02:33.685Z,21.15
2022-08-23T01:05:11.621Z,21.13
2022-08-23T01:07:53.961Z,21.14
2022-08-23T01:10:38.452Z,21.13
2022-08-23T01:13:16.431Z,21.15
2022-08-23T01:15:56.332Z,21.12
2022-08-23T01:18:28.392Z,21.09
2022-08-23T01:21:04.548Z,21.08
2022-08-23T01:23:59.845Z,21.06
2022-08-23T01:26:32.423Z,21.02
2022-08-23T01:29:09.163Z,21.03
2022-08-23T01:31:41.090Z,21.05
2022-08-23T01:34:12.277Z,21.03
2022-08-23T01:36:41.119Z,21.02
2022-08-23T01:39:15.631Z,21.00
2022-08-23T01:41:44.801Z,20.98
2022-08-23T01:44:15.219Z,20.95
2022-08-23T01:46:47.572Z,20.93
2022-08-23T01:49:19.070Z,20.89
2022-08-23T01:51:48.886Z,20.88
2022-08-23T01:54:19.030Z,20.87
2022-08-23T01:56:49.443Z,20.87
2022-08-23T01:59:18.094Z,20.88
2022-08-23T02:01:51.861Z,20.88
2022-08-23T02:04:26.014Z,20.81
2022-08-23T02:06:55.881Z,20.70
2022-08-23T02:09:28.017Z,20.73
2022-08-23T02:12:00.907Z,20.76
2022-08-23T02:14:33.199Z,20.77
2022-08-23T02:17:07.334Z,20.76
2022-08-23T02:19:40.275Z,20.71
2022-08-23T02:22:13.461Z,20.67
2022-08-23T02:24:45.804Z,20.61
2022-08-23T02:27:15.999Z,20.58
2022-08-23T02:29:48.619Z,20.55
2022-08-23T02:32:20.972Z,20.49
2022-08-23T02:35:01.758Z,20.50
2022-08-23T02:37:36.009Z,20.51
2022-08-23T02:40:08.614Z,20.49
2022-08-23T02:42:38.258Z,20.44
2022-08-23T02:45:08.809Z,20.42
2022-08-23T02:47:45.257Z,20.36
2022-08-23T02:50:21.595Z,20.34
2022-08-23T02:52:51.042Z,20.30
2022-08-23T02:55:21.727Z,20.27
2022-08-23T02:57:50.561Z,20.24
2022-08-23T03:00:20.599Z,20.20
2022-08-23T03:02:52.259Z,20.18
2022-08-23T03:05:21.797Z,20.13
2022-08-23T03:07:50.822Z,20.13
2022-08-23T03:10:20.738Z,20.10
2022-08-23T03:12:55.979Z,20.06
2022-08-23T03:15:24.640Z,20.03
2022-08-23T03:17:53.086Z,20.00
2022-08-23T03:20:21.993Z,19.96
2022-08-23T03:22:54.665Z,19.96
2022-08-23T03:25:27.413Z,19.94
2022-08-23T03:28:09.836Z,19.90
2022-08-23T03:30:43.294Z,19.83
2022-08-23T03:33:13.235Z,19.80
2022-08-23T03:35:42.704Z,19.78
2022-08-23T03:38:14.375Z,19.80
2022-08-23T03:40:46.072Z,19.84
2022-08-23T03:43:15.460Z,19.86
2022-08-23T03:45:44.177Z,19.83
2022-08-23T03:48:13.028Z,19.83
2022-08-23T03:50:42.011Z,19.79
2022-08-23T03:53:11.008Z,19.79
2022-08-23T03:55:43.863Z,19.82
2022-08-23T03:58:18.180Z,19.84
2022-08-23T04:00:47.105Z,19.84
2022-08-23T04:03:17.118Z,19.87
2022-08-23T04:06:07.301Z,19.93
2022-08-23T04:08:36.070Z,19.94
2022-08-23T04:11:08.206Z,19.96
2022-08-23T04:13:43.831Z,19.98
2022-08-23T04:16:13.891Z,20.00
2022-08-23T04:18:42.648Z,20.03
2022-08-23T04:21:17.021Z,20.06
2022-08-23T04:23:46.129Z,20.07
2022-08-23T04:26:15.330Z,20.13
2022-08-23T04:28:47.993Z,20.18
2022-08-23T04:31:18.880Z,20.19
2022-08-23T04:33:52.454Z,20.20
2022-08-23T04:36:23.561Z,20.25
2022-08-23T04:38:58.457Z,20.28
2022-08-23T04:41:45.775Z,20.35
2022-08-23T04:44:16.054Z,20.37
2022-08-23T04:46:47.094Z,20.40
2022-08-23T04:49:16.813Z,20.44
2022-08-23T04:51:53.475Z,20.49
2022-08-23T04:54:23.910Z,20.54
2022-08-23T04:57:11.365Z,20.59
2022-08-23T04:59:44.077Z,20.64
2022-08-23T05:02:12.763Z,20.71
2022-08-23T05:04:43.658Z,20.76
2022-08-23T05:07:12.950Z,20.81
2022-08-23T05:09:41.795Z,20.86
2022-08-23T05:12:12.675Z,20.90
2022-08-23T05:14:41.790Z,20.96
2022-08-23T05:17:21.073Z,20.98
2022-08-23T05:19:50.258Z,21.03
2022-08-23T05:22:18.992Z,21.10
2022-08-23T05:25:07.741Z,21.15
2022-08-23T05:27:39.546Z,21.19
2022-08-23T05:30:14.398Z,21.23
2022-08-23T05:32:46.241Z,21.21
2022-08-23T05:35:15.543Z,21.24
2022-08-23T05:37:46.673Z,21.27
2022-08-23T05:40:15.705Z,21.30
2022-08-23T05:42:58.061Z,21.35
2022-08-23T05:45:28.232Z,21.40
2022-08-23T05:47:59.412Z,21.44
2022-08-23T05:50:35.852Z,21.51
2022-08-23T05:53:04.849Z,21.59
2022-08-23T05:55:34.760Z,21.65
2022-08-23T05:58:27.505Z,21.69
2022-08-23T06:01:01.516Z,21.69
2022-08-23T06:03:32.064Z,21.74
2022-08-23T06:06:02.957Z,21.74
2022-08-23T06:08:31.787Z,21.76
2022-08-23T06:11:02.921Z,21.81
2022-08-23T06:13:41.500Z,21.86
2022-08-23T06:16:14.851Z,21.91
2022-08-23T06:18:47.714Z,22.01
2022-08-23T06:21:41.340Z,22.07
2022-08-23T06:24:10.942Z,22.10
2022-08-23T06:50:23.311Z,22.51
2022-08-23T06:53:11.211Z,22.87
2022-08-23T06:55:54.950Z,22.96
2022-08-23T06:58:29.192Z,23.03
2022-08-23T07:01:44.638Z,23.19
2022-08-23T07:04:23.052Z,23.29
2022-08-23T07:07:20.983Z,23.47
2022-08-23T07:09:49.816Z,23.42
2022-08-23T07:12:20.067Z,23.55
2022-08-23T07:14:51.754Z,23.52
2022-08-23T07:17:21.411Z,23.59
2022-08-23T07:19:53.185Z,23.72
2022-08-23T07:22:26.995Z,23.73
2022-08-23T07:24:56.633Z,23.73
2022-08-23T07:27:28.260Z,23.83
2022-08-23T07:30:07.173Z,23.90
2022-08-23T07:32:38.767Z,23.99
2022-08-23T07:35:17.937Z,24.02
2022-08-23T07:37:49.427Z,24.14
2022-08-23T07:40:20.517Z,24.27
2022-08-23T07:42:53.823Z,24.35
2022-08-23T07:45:24.039Z,24.48
2022-08-23T07:47:57.535Z,24.53
2022-08-23T07:50:30.610Z,24.56
2022-08-23T07:53:03.868Z,24.64
2022-08-23T07:55:33.226Z,24.72
2022-08-23T07:58:16.557Z,24.76
2022-08-23T08:00:57.135Z,24.83
2022-08-23T08:03:44.055Z,24.92
2022-08-23T08:06:25.495Z,24.96
2022-08-23T08:08:58.119Z,25.00
2022-08-23T08:11:34.248Z,25.05
2022-08-23T08:14:08.577Z,25.03
2022-08-23T08:16:44.164Z,25.00
2022-08-23T08:19:18.938Z,25.01
2022-08-23T08:22:27.951Z,25.01
2022-08-23T08:25:18.567Z,24.98
2022-08-23T08:27:48.519Z,24.96
2022-08-23T08:30:18.451Z,24.96
2022-08-23T08:32:48.292Z,24.93
2022-08-23T08:35:17.891Z,24.97
2022-08-23T08:37:48.655Z,24.94
2022-08-23T08:40:26.135Z,24.99
2022-08-23T08:43:14.300Z,25.17
2022-08-23T08:45:59.220Z,25.41
2022-08-23T08:48:31.999Z,25.97
2022-08-23T08:51:02.732Z,26.50
2022-08-23T08:53:38.930Z,26.87
2022-08-23T08:56:21.321Z,26.89
2022-08-23T08:59:06.708Z,26.94
2022-08-23T09:01:38.623Z,26.88
2022-08-23T09:04:09.644Z,26.92
2022-08-23T09:06:51.334Z,27.07
2022-08-23T09:09:37.225Z,27.40
2022-08-23T09:12:19.459Z,27.73
2022-08-23T09:15:04.134Z,28.02
2022-08-23T09:17:44.142Z,28.23
2022-08-23T09:20:16.019Z,28.42
2022-08-23T09:22:51.536Z,28.67
2022-08-23T09:25:31.164Z,28.80
2022-08-23T09:28:08.312Z,28.68
2022-08-23T09:30:50.145Z,28.65
2022-08-23T09:33:22.717Z,28.88
2022-08-23T09:36:17.156Z,29.12
2022-08-23T09:38:54.406Z,29.47
2022-08-23T09:41:28.195Z,29.69
2022-08-23T09:44:02.632Z,29.86
2022-08-23T09:46:42.194Z,30.01
2022-08-23T09:49:26.671Z,30.19
2022-08-23T09:52:02.304Z,30.32
2022-08-23T09:54:35.496Z,30.42
2022-08-23T09:57:10.980Z,30.42
2022-08-23T09:59:47.181Z,30.43
2022-08-23T10:02:28.034Z,30.55
2022-08-23T10:05:03.075Z,30.61
2022-08-23T10:07:42.735Z,30.82
2022-08-23T10:10:29.835Z,30.89
2022-08-23T10:13:05.521Z,31.06
2022-08-23T10:15:49.598Z,31.14
2022-08-23T10:18:30.553Z,31.26
2022-08-23T10:21:04.673Z,31.39
2022-08-23T10:23:48.524Z,31.40
2022-08-23T10:26:26.351Z,31.57
2022-08-23T10:29:22.502Z,31.75
2022-08-23T10:32:05.368Z,31.83
2022-08-23T10:35:04.548Z,31.55
2022-08-23T10:37:48.795Z,31.45
2022-08-23T10:40:28.942Z,31.34
2022-08-23T10:43:10.845Z,31.50
2022-08-23T10:45:43.395Z,31.61
2022-08-23T10:48:30.864Z,31.39
2022-08-23T10:51:04.693Z,31.35
2022-08-23T10:53:48.264Z,31.48
2022-08-23T10:56:21.011Z,31.75
2022-08-23T10:59:02.335Z,31.90
2022-08-23T11:01:42.129Z,32.01
2022-08-23T11:04:25.062Z,32.13
2022-08-23T11:07:20.144Z,32.46
2022-08-23T11:09:54.556Z,32.69
2022-08-23T11:12:29.271Z,33.00
2022-08-23T11:15:20.168Z,33.28
2022-08-23T11:18:05.832Z,33.42
2022-08-23T11:21:06.958Z,33.35
2022-08-23T11:23:54.812Z,33.36
2022-08-23T11:27:07.846Z,33.46
2022-08-23T11:29:48.695Z,33.64
2022-08-23T11:32:50.224Z,33.93
2022-08-23T11:35:43.102Z,33.78
2022-08-23T11:38:17.299Z,33.81
2022-08-23T11:41:01.270Z,33.91
2022-08-23T11:43:38.727Z,34.02
2022-08-23T11:46:36.124Z,33.89
2022-08-23T11:49:33.692Z,33.80
2022-08-23T11:52:17.817Z,33.79
2022-08-23T11:55:01.865Z,33.86
2022-08-23T11:57:48.751Z,33.81
2022-08-23T12:00:28.682Z,33.22
2022-08-23T12:03:03.634Z,33.02
2022-08-23T12:06:07.405Z,33.14
2022-08-23T12:08:53.959Z,33.35
2022-08-23T12:11:26.638Z,33.51
2022-08-23T12:14:00.277Z,33.71
2022-08-23T12:16:49.628Z,33.68
2022-08-23T12:19:39.480Z,33.58
2022-08-23T12:22:13.584Z,33.53
2022-08-23T12:24:46.879Z,33.38
2022-08-23T12:27:29.814Z,33.40
2022-08-23T12:30:04.207Z,33.41
2022-08-23T12:32:45.986Z,33.23
2022-08-23T12:35:30.499Z,32.56
2022-08-23T12:38:08.212Z,31.94
2022-08-23T12:40:42.553Z,31.51
2022-08-23T12:43:22.481Z,31.15
2022-08-23T12:45:54.604Z,30.90
2022-08-23T12:48:25.677Z,30.75
2022-08-23T12:50:59.621Z,30.75
2022-08-23T12:53:30.787Z,31.27
2022-08-23T12:56:02.082Z,31.76
2022-08-23T12:58:36.052Z,32.18
2022-08-23T13:01:07.993Z,32.49
2022-08-23T13:03:40.591Z,32.75
2022-08-23T13:06:13.487Z,32.46
2022-08-23T13:08:48.946Z,32.05
2022-08-23T13:11:22.463Z,31.76
2022-08-23T13:13:53.262Z,31.35
2022-08-23T13:16:28.996Z,31.01
2022-08-23T13:19:16.824Z,31.09
2022-08-23T13:21:45.857Z,31.10
2022-08-23T13:24:37.940Z,30.71
2022-08-23T13:27:23.094Z,30.32
2022-08-23T13:29:56.609Z,30.01
2022-08-23T13:32:39.627Z,29.74
2022-08-23T13:35:30.563Z,29.48
2022-08-23T13:38:03.289Z,29.30
2022-08-23T13:40:34.854Z,29.18
2022-08-23T13:43:10.117Z,29.09
2022-08-23T13:45:49.092Z,29.02
2022-08-23T13:48:22.219Z,28.96
2022-08-23T13:50:51.371Z,28.89
2022-08-23T13:53:20.497Z,28.81
2022-08-23T13:55:52.168Z,28.73
2022-08-23T13:58:29.071Z,28.72
2022-08-23T14:01:00.665Z,28.65
2022-08-23T14:03:31.566Z,28.63
2022-08-23T14:06:00.543Z,28.64
2022-08-23T14:08:29.087Z,28.63
2022-08-23T14:10:57.665Z,28.63
2022-08-23T14:13:31.006Z,28.61
2022-08-23T14:21:42.891Z,28.48
2022-08-23T14:24:12.017Z,28.48
2022-08-23T14:26:51.669Z,28.46
2022-08-23T14:29:22.481Z,28.41
2022-08-23T14:31:53.597Z,28.36
2022-08-23T14:34:22.806Z,28.30
2022-08-23T14:39:42.203Z,28.29
2022-08-23T14:42:11.337Z,28.28
2022-08-23T14:44:40.231Z,28.24
2022-08-23T14:47:10.258Z,28.20
2022-08-23T14:49:39.051Z,28.18
2022-08-23T14:52:08.008Z,28.12
2022-08-23T14:54:36.893Z,28.08
2022-08-23T14:57:06.593Z,28.05
2022-08-23T14:59:35.907Z,28.02
2022-08-23T15:02:06.313Z,28.02
2022-08-23T15:04:37.705Z,28.01
2022-08-23T15:07:17.635Z,27.97
2022-08-23T15:09:49.918Z,27.91
2022-08-23T15:15:12.267Z,27.85
2022-08-23T15:17:52.500Z,27.79
2022-08-23T15:20:30.195Z,27.76
2022-08-23T15:23:00.430Z,27.71
2022-08-23T15:25:32.284Z,27.65
2022-08-23T15:28:02.673Z,27.63
2022-08-23T15:30:34.339Z,27.59
2022-08-23T15:33:03.651Z,27.54
2022-08-23T15:35:41.032Z,27.48
2022-08-23T15:38:11.947Z,27.43
2022-08-23T15:40:40.725Z,27.38
2022-08-23T15:43:10.507Z,27.33
2022-08-23T15:45:39.873Z,27.30
2022-08-23T15:48:16.873Z,27.26
2022-08-23T15:50:48.536Z,27.26
2022-08-23T15:53:17.562Z,27.23
2022-08-23T15:55:47.191Z,27.21
2022-08-23T15:58:18.787Z,27.15
2022-08-23T16:00:47.957Z,26.98
2022-08-23T16:03:18.748Z,26.94
2022-08-23T16:05:53.227Z,26.90
2022-08-23T16:08:26.299Z,26.80
2022-08-23T16:10:55.671Z,26.65
2022-08-23T16:13:25.067Z,26.36
2022-08-23T16:15:54.642Z,26.15
2022-08-23T16:18:23.582Z,26.00
2022-08-23T16:20:54.370Z,25.87
2022-08-23T16:23:26.559Z,25.80
2022-08-23T16:26:00.886Z,25.74
2022-08-23T16:28:30.921Z,25.64
2022-08-23T16:30:59.882Z,25.55
2022-08-23T16:33:29.056Z,25.49
2022-08-23T16:35:59.721Z,25.42
2022-08-23T16:38:28.404Z,25.36
2022-08-23T16:40:56.833Z,25.27
2022-08-23T16:43:25.436Z,25.10
2022-08-23T16:45:57.292Z,24.94
2022-08-23T16:48:26.492Z,24.78
2022-08-23T16:50:55.312Z,24.60
2022-08-23T16:53:28.107Z,24.39
2022-08-23T16:55:57.477Z,24.28
2022-08-23T16:58:26.514Z,24.25
2022-08-23T17:00:57.568Z,24.15
2022-08-23T17:03:27.223Z,24.13
2022-08-23T17:05:55.965Z,24.03
2022-08-23T17:08:28.541Z,23.96
2022-08-23T17:11:01.143Z,23.92
2022-08-23T17:13:32.558Z,23.86
2022-08-23T17:16:01.070Z,23.80
2022-08-23T17:18:29.473Z,23.77
2022-08-23T17:20:59.318Z,23.74
2022-08-23T17:23:29.100Z,23.73
2022-08-23T17:25:57.847Z,23.72
2022-08-23T17:28:26.790Z,23.72
2022-08-23T17:30:58.826Z,23.71
2022-08-23T17:33:27.935Z,23.68
2022-08-23T17:35:56.442Z,23.63
2022-08-23T17:38:28.131Z,23.66
2022-08-23T17:40:59.093Z,23.63
2022-08-23T17:43:28.585Z,23.60
2022-08-23T17:45:57.217Z,23.60
2022-08-23T17:48:25.940Z,23.60
2022-08-23T17:50:55.809Z,23.58
2022-08-23T17:53:24.660Z,23.57
2022-08-23T17:55:53.191Z,23.57
2022-08-23T17:58:23.298Z,23.57
2022-08-23T18:00:57.187Z,23.52
2022-08-23T18:03:26.958Z,23.47
2022-08-23T18:05:55.403Z,23.46
2022-08-23T18:08:24.643Z,23.42
2022-08-23T18:10:54.974Z,23.37
2022-08-23T18:13:25.517Z,23.33
2022-08-23T18:15:54.339Z,23.28
2022-08-23T18:18:23.124Z,23.27
2022-08-23T18:20:51.919Z,23.17
2022-08-23T18:23:20.536Z,23.06
2022-08-23T18:25:49.150Z,23.03
2022-08-23T18:28:18.227Z,23.00
2022-08-23T18:30:50.603Z,22.96
2022-08-23T18:33:21.428Z,22.95
2022-08-23T18:35:54.429Z,22.94
2022-08-23T18:38:22.982Z,22.91
2022-08-23T18:40:51.440Z,22.83
2022-08-23T18:43:22.473Z,22.74
2022-08-23T18:45:55.970Z,22.71
2022-08-23T18:48:26.490Z,22.73
2022-08-23T18:50:54.871Z,22.74
2022-08-23T18:53:23.337Z,22.76
2022-08-23T18:55:52.581Z,22.77
2022-08-23T18:58:22.783Z,22.78
2022-08-23T19:00:52.414Z,22.77
2022-08-23T19:03:22.395Z,22.76
2022-08-23T19:05:51.022Z,22.78
2022-08-23T19:08:20.141Z,22.85
2022-08-23T19:10:48.865Z,22.83
2022-08-23T19:13:17.656Z,22.91
2022-08-23T19:15:47.144Z,22.96
2022-08-23T19:18:16.270Z,23.05
2022-08-23T19:20:46.460Z,23.10
2022-08-23T19:23:15.527Z,23.12
2022-08-23T19:25:45.572Z,23.19
2022-08-23T19:28:15.188Z,23.27
2022-08-23T19:30:44.751Z,23.26
2022-08-23T19:33:14.039Z,23.27
2022-08-23T19:35:43.280Z,23.26
2022-08-23T19:38:14.337Z,23.16
2022-08-23T19:40:43.766Z,23.12
2022-08-23T19:43:12.666Z,23.13
2022-08-23T19:45:41.243Z,23.12
2022-08-23T19:48:10.230Z,23.10
2022-08-23T19:50:40.302Z,23.08
2022-08-23T19:53:10.025Z,23.11
2022-08-23T19:55:43.363Z,23.09
2022-08-23T19:58:15.315Z,23.06
2022-08-23T20:00:44.072Z,23.07
2022-08-23T20:03:13.023Z,23.04
2022-08-23T20:05:42.269Z,23.01
2022-08-23T20:08:10.903Z,22.95
2022-08-23T20:10:39.964Z,22.89
2022-08-23T20:13:10.090Z,22.86
2022-08-23T20:15:40.056Z,22.85
2022-08-23T20:18:08.651Z,22.85
2022-08-23T20:20:38.286Z,22.86
2022-08-23T20:23:25.262Z,22.83
2022-08-23T20:25:54.327Z,22.77
2022-08-23T20:28:26.454Z,22.72
2022-08-23T20:30:55.079Z,22.69
2022-08-23T20:33:24.971Z,22.64
2022-08-23T20:35:57.531Z,22.61
2022-08-23T20:38:33.947Z,22.54
2022-08-23T20:41:03.449Z,22.46
2022-08-23T20:43:35.788Z,22.43
2022-08-23T20:46:05.189Z,22.37
2022-08-23T20:48:35.527Z,22.33
2022-08-23T20:51:07.383Z,22.27
2022-08-23T20:53:38.393Z,22.22
2022-08-23T20:56:07.926Z,22.19
2022-08-23T20:58:38.349Z,22.17
2022-08-23T21:01:10.287Z,22.11
2022-08-23T21:03:40.063Z,22.07
2022-08-23T21:06:11.018Z,22.06
2022-08-23T21:08:43.415Z,22.03
2022-08-23T21:11:18.410Z,22.05
2022-08-23T21:13:49.575Z,22.05
2022-08-23T21:16:18.924Z,21.93
2022-08-23T21:18:48.833Z,21.95
2022-08-23T21:21:21.566Z,21.92
2022-08-23T21:23:51.372Z,21.90
2022-08-23T21:26:20.349Z,21.88
2022-08-23T21:28:54.647Z,21.84
2022-08-23T21:31:28.772Z,21.77
2022-08-23T21:33:57.612Z,21.71
2022-08-23T21:36:26.583Z,21.58
2022-08-23T21:38:55.686Z,21.50
2022-08-23T21:41:34.029Z,21.50
2022-08-23T21:44:07.229Z,21.55
2022-08-23T21:46:37.060Z,21.55
2022-08-23T21:49:06.319Z,21.54
2022-08-23T21:51:35.450Z,21.57
2022-08-23T21:54:04.313Z,21.61
2022-08-23T21:56:33.592Z,21.67
2022-08-23T21:59:07.167Z,21.73
2022-08-23T22:01:36.610Z,21.78
2022-08-23T22:04:07.655Z,21.78
2022-08-23T22:06:37.242Z,21.74
2022-08-23T22:09:08.396Z,21.71
2022-08-23T22:11:37.859Z,21.65
2022-08-23T22:14:08.681Z,21.64
2022-08-23T22:16:37.708Z,21.65
2022-08-23T22:19:07.023Z,21.58
2022-08-23T22:21:36.591Z,21.52
2022-08-23T22:24:06.132Z,21.53
2022-08-23T22:26:35.724Z,21.52
2022-08-23T22:29:06.058Z,21.54
2022-08-23T22:31:38.256Z,21.49
2022-08-23T22:34:08.901Z,21.42
2022-08-23T22:36:37.953Z,21.41
2022-08-23T22:39:07.866Z,21.38
2022-08-23T22:41:37.386Z,21.34
2022-08-23T22:44:06.585Z,21.31
2022-08-23T22:46:37.325Z,21.29
2022-08-23T22:49:06.250Z,21.27
2022-08-23T22:51:37.052Z,21.24
2022-08-23T22:54:09.660Z,21.20
2022-08-23T22:56:48.624Z,21.17
2022-08-23T22:59:19.948Z,21.18
2022-08-23T23:01:53.193Z,21.18
2022-08-23T23:04:25.474Z,21.18
2022-08-23T23:06:56.384Z,21.18
2022-08-23T23:09:25.669Z,21.18
2022-08-23T23:11:55.243Z,21.16
2022-08-23T23:14:25.621Z,21.19
2022-08-23T23:16:56.336Z,21.19
2022-08-23T23:19:47.987Z,21.20
2022-08-23T23:22:16.655Z,21.20
2022-08-23T23:24:46.001Z,21.16
2022-08-23T23:27:14.558Z,21.21
2022-08-23T23:29:43.324Z,21.19
2022-08-23T23:32:13.531Z,21.20
2022-08-23T23:34:42.288Z,21.24
2022-08-23T23:37:11.504Z,21.24
2022-08-23T23:39:40.239Z,21.21
2022-08-23T23:42:09.347Z,21.21
2022-08-23T23:44:37.993Z,21.24
2022-08-23T23:47:06.765Z,21.26
2022-08-23T23:49:36.934Z,21.26
2022-08-23T23:52:07.411Z,21.28
2022-08-23T23:54:39.130Z,21.28
2022-08-23T23:57:08.041Z,21.29
2022-08-23T23:59:37.613Z,21.25
